Santa Margherita — V7JA2 — position and weather

sailwx.info

Track history (hours):
 
Tides and Currents Weather Stations Pressure Air Temp Water Temp Dewpoint Dewpoint Depression Visibility Wind Speed Wind Dir Waves Ship Positions

Santa Margherita

Last reported at 2015-Mar-30 09:33 UTC. Time now 2015-Apr-21 14:42 UTC.
Position N 22°03' E 114°22'.
Warning: this ship's position is 22 days out of date.

Length 190 m; draft 7.3 m.

MMSI: 538090191.

Date/timePositionNaut miles runAvg speedWind from/ knotsBaromVisibWave heightAir tempDewpointWater temp
2015-Mar-30 09:33N 22°03' E 114°22'13 9.2
2015-Mar-30 08:05N 22°10' E 114°10'0 0.1
2015-Mar-30 06:08N 22°10' E 114°09'0 0.0
2015-Mar-30 05:31N 22°10' E 114°09'0 0.0
2015-Mar-30 04:31N 22°10' E 114°09'0 0.0
2015-Mar-30 01:31N 22°10' E 114°09'0 0.0
2015-Mar-30 00:19N 22°09' E 114°09'0 0.0
2015-Mar-29 23:31N 22°09' E 114°09'0 0.0
2015-Mar-29 22:28N 22°09' E 114°09'5 3.9
2015-Mar-29 21:18N 22°08' E 114°05'6 8.2
2015-Mar-29 20:32N 22°07' E 113°58'8 7.5
2015-Mar-29 19:28N 22°06' E 113°49'4 3.8
2015-Mar-29 18:30N 22°08' E 113°46'0 0.1
2015-Mar-29 17:24N 22°08' E 113°46'0 0.1
2015-Mar-29 16:30N 22°08' E 113°46'0 0.0
2015-Mar-29 15:30N 22°08' E 113°46'0 0.0
2015-Mar-29 14:30N 22°08' E 113°46'0 0.0
2015-Mar-29 13:24N 22°08' E 113°46'0 0.1
2015-Mar-29 12:30N 22°08' E 113°46'0 0.1
2015-Mar-29 11:24N 22°08' E 113°46'0 0.0
2015-Mar-29 10:30N 22°08' E 113°46'0 0.0
2015-Mar-29 09:24N 22°08' E 113°46'0 0.0
2015-Mar-29 08:30N 22°08' E 113°46'0 0.0
2015-Mar-29 07:30N 22°08' E 113°46'0 0.0
2015-Mar-29 06:30N 22°08' E 113°46'0 0.1
2015-Mar-29 05:12N 22°08' E 113°46'0 0.2
2015-Mar-29 04:30N 22°08' E 113°46'0 0.0
2015-Mar-29 03:29N 22°08' E 113°46'0 0.0
2015-Mar-29 02:23N 22°08' E 113°46'0 0.1
2015-Mar-29 01:23N 22°08' E 113°46'0 0.1
2015-Mar-29 00:29N 22°08' E 113°46'0 0.0
2015-Mar-28 23:29N 22°08' E 113°46'0 0.0
2015-Mar-28 22:29N 22°08' E 113°46'0 0.0
2015-Mar-28 21:29N 22°08' E 113°46'0 0.0
2015-Mar-28 20:17N 22°08' E 113°46'0 0.1
2015-Mar-28 19:29N 22°08' E 113°46'0 0.0
2015-Mar-28 18:29N 22°08' E 113°46'0 0.0
2015-Mar-28 17:29N 22°08' E 113°46'0 0.1
2015-Mar-28 16:29N 22°08' E 113°46'0 0.0
2015-Mar-28 15:17N 22°08' E 113°46'0 0.0
2015-Mar-28 14:29N 22°08' E 113°46'0 0.1
2015-Mar-28 13:29N 22°08' E 113°46'0 0.0
2015-Mar-28 12:29N 22°08' E 113°46'0 0.1
2015-Mar-28 11:23N 22°08' E 113°46'0 0.1
2015-Mar-28 10:29N 22°08' E 113°46'0 0.0
2015-Mar-28 09:29N 22°08' E 113°46'0 0.0
2015-Mar-28 08:29N 22°08' E 113°46'0 0.0
2015-Mar-28 07:23N 22°08' E 113°46'0 0.0
2015-Mar-28 06:23N 22°08' E 113°46'0 0.0
2015-Mar-28 05:23N 22°08' E 113°46'0 0.0
2015-Mar-28 03:29N 22°08' E 113°46'0 0.1
2015-Mar-28 02:29N 22°08' E 113°46'0 0.0
2015-Mar-28 01:29N 22°08' E 113°46'0 0.0
2015-Mar-28 00:29N 22°08' E 113°46'0 0.1
2015-Mar-27 23:29N 22°08' E 113°46'0 0.0
2015-Mar-27 22:17N 22°08' E 113°46'0 0.1
2015-Mar-27 21:23N 22°08' E 113°46'0 0.0
2015-Mar-27 20:29N 22°08' E 113°46'0 0.0
2015-Mar-27 19:29N 22°08' E 113°46'0 0.1
2015-Mar-27 18:23N 22°08' E 113°46'0 0.1
2015-Mar-27 17:29N 22°08' E 113°46'0 0.0
2015-Mar-27 16:28N 22°08' E 113°46'0 0.0
2015-Mar-27 15:28N 22°08' E 113°46'0 0.0
2015-Mar-27 14:22N 22°08' E 113°46'0 0.1
2015-Mar-27 13:28N 22°08' E 113°46'0 0.0
2015-Mar-27 12:22N 22°08' E 113°46'0 0.0
2015-Mar-27 11:28N 22°08' E 113°46'0 0.1
2015-Mar-27 10:28N 22°08' E 113°46'0 0.0
2015-Mar-27 09:22N 22°08' E 113°46'0 0.0
2015-Mar-27 08:28N 22°08' E 113°46'0 0.1
2015-Mar-27 07:28N 22°08' E 113°46'0 0.0
2015-Mar-27 06:28N 22°08' E 113°46'0 0.2
2015-Mar-27 05:28N 22°08' E 113°46'0 0.0
2015-Mar-27 04:28N 22°08' E 113°46'0 0.1
2015-Mar-27 03:22N 22°08' E 113°46'0 0.0
2015-Mar-27 02:28N 22°08' E 113°46'0 0.0
2015-Mar-27 01:28N 22°08' E 113°46'0 0.1
2015-Mar-27 00:28N 22°08' E 113°46'0 0.0
2015-Mar-26 23:16N 22°08' E 113°46'0 0.1
2015-Mar-26 22:28N 22°08' E 113°46'0 0.1
2015-Mar-26 21:28N 22°08' E 113°46'0 0.1
2015-Mar-26 20:22N 22°08' E 113°46'  
2015-Mar-22 03:15N 22°05' E 113°50'6 8.6
2015-Mar-22 02:33N 22°10' E 113°47'9 8.8
2015-Mar-22 01:33N 22°19' E 113°48'8 7.7
2015-Mar-22 00:30N 22°27' E 113°45'19 9.6
2015-Mar-21 22:30N 22°45' E 113°39'1010.4
2015-Mar-21 21:33N 22°54' E 113°34'10 9.7
2015-Mar-21 20:34N 23°03' E 113°30'1 0.5
2015-Mar-21 19:30N 23°04' E 113°30'0 0.0
2015-Mar-21 18:30N 23°04' E 113°30'0 0.0
2015-Mar-21 17:30N 23°04' E 113°30'0 0.0
2015-Mar-21 16:24N 23°04' E 113°30'0 0.0
2015-Mar-21 15:24N 23°04' E 113°30'0 0.0
2015-Mar-21 14:30N 23°04' E 113°30'0 0.0
2015-Mar-21 12:23N 23°04' E 113°30'0 0.0
2015-Mar-21 11:17N 23°04' E 113°30'0 0.0
2015-Mar-21 10:23N 23°04' E 113°30'0 0.0
2015-Mar-21 09:17N 23°04' E 113°30'0 0.0
2015-Mar-21 08:29N 23°04' E 113°30'0 0.0
2015-Mar-21 07:23N 23°04' E 113°30'0 0.0
2015-Mar-21 06:17N 23°04' E 113°30'0 0.0
2015-Mar-21 05:29N 23°04' E 113°30'0 0.0
2015-Mar-21 04:23N 23°04' E 113°30'0 0.0
2015-Mar-21 03:29N 23°04' E 113°30'0 0.0
2015-Mar-21 02:29N 23°04' E 113°30'0 0.0
2015-Mar-21 01:29N 23°04' E 113°30'0 0.0
2015-Mar-21 00:29N 23°04' E 113°30'0 0.0
2015-Mar-20 23:23N 23°04' E 113°30'0 0.0
2015-Mar-20 22:29N 23°04' E 113°30'0 0.0
2015-Mar-20 21:29N 23°04' E 113°30'0 0.0
2015-Mar-20 20:29N 23°04' E 113°30'0 0.0
2015-Mar-20 19:29N 23°04' E 113°30'0 0.0
2015-Mar-20 18:29N 23°04' E 113°30'0 0.0
2015-Mar-20 17:23N 23°04' E 113°30'0 0.0
2015-Mar-20 16:17N 23°04' E 113°30'0 0.0
2015-Mar-20 15:30N 23°04' E 113°30'3 2.8
2015-Mar-20 14:33N 23°01' E 113°31'9 9.4
2015-Mar-20 13:33N 22°52' E 113°34'10 9.7
2015-Mar-20 12:32N 22°44' E 113°40'2210.4
2015-Mar-20 10:25N 22°23' E 113°47'8 9.3
2015-Mar-20 09:33N 22°15' E 113°48'  
Track history (hours):
 
Tides and Currents Weather Stations Pressure Air Temp Water Temp Dewpoint Dewpoint Depression Visibility Wind Speed Wind Dir Waves Ship Positions

Santa Margherita

Last reported at 2015-Mar-30 09:33 UTC. Time now 2015-Apr-21 14:42 UTC.
Position N 22°03' E 114°22'.
Warning: this ship's position is 22 days out of date.

Length 190 m; draft 7.3 m.

MMSI: 538090191.

Date/timePositionNaut miles runAvg speedWind from/ knotsBaromVisibWave heightAir tempDewpointWater temp
2015-Mar-30 09:33N 22°03' E 114°22'13 9.2
2015-Mar-30 08:05N 22°10' E 114°10'0 0.1
2015-Mar-30 06:08N 22°10' E 114°09'0 0.0
2015-Mar-30 05:31N 22°10' E 114°09'0 0.0
2015-Mar-30 04:31N 22°10' E 114°09'0 0.0
2015-Mar-30 01:31N 22°10' E 114°09'0 0.0
2015-Mar-30 00:19N 22°09' E 114°09'0 0.0
2015-Mar-29 23:31N 22°09' E 114°09'0 0.0
2015-Mar-29 22:28N 22°09' E 114°09'5 3.9
2015-Mar-29 21:18N 22°08' E 114°05'6 8.2
2015-Mar-29 20:32N 22°07' E 113°58'8 7.5
2015-Mar-29 19:28N 22°06' E 113°49'4 3.8
2015-Mar-29 18:30N 22°08' E 113°46'0 0.1
2015-Mar-29 17:24N 22°08' E 113°46'0 0.1
2015-Mar-29 16:30N 22°08' E 113°46'0 0.0
2015-Mar-29 15:30N 22°08' E 113°46'0 0.0
2015-Mar-29 14:30N 22°08' E 113°46'0 0.0
2015-Mar-29 13:24N 22°08' E 113°46'0 0.1
2015-Mar-29 12:30N 22°08' E 113°46'0 0.1
2015-Mar-29 11:24N 22°08' E 113°46'0 0.0
2015-Mar-29 10:30N 22°08' E 113°46'0 0.0
2015-Mar-29 09:24N 22°08' E 113°46'0 0.0
2015-Mar-29 08:30N 22°08' E 113°46'0 0.0
2015-Mar-29 07:30N 22°08' E 113°46'0 0.0
2015-Mar-29 06:30N 22°08' E 113°46'0 0.1
2015-Mar-29 05:12N 22°08' E 113°46'0 0.2
2015-Mar-29 04:30N 22°08' E 113°46'0 0.0
2015-Mar-29 03:29N 22°08' E 113°46'0 0.0
2015-Mar-29 02:23N 22°08' E 113°46'0 0.1
2015-Mar-29 01:23N 22°08' E 113°46'0 0.1
2015-Mar-29 00:29N 22°08' E 113°46'0 0.0
2015-Mar-28 23:29N 22°08' E 113°46'0 0.0
2015-Mar-28 22:29N 22°08' E 113°46'0 0.0
2015-Mar-28 21:29N 22°08' E 113°46'0 0.0
2015-Mar-28 20:17N 22°08' E 113°46'0 0.1
2015-Mar-28 19:29N 22°08' E 113°46'0 0.0
2015-Mar-28 18:29N 22°08' E 113°46'0 0.0
2015-Mar-28 17:29N 22°08' E 113°46'0 0.1
2015-Mar-28 16:29N 22°08' E 113°46'0 0.0
2015-Mar-28 15:17N 22°08' E 113°46'0 0.0
2015-Mar-28 14:29N 22°08' E 113°46'0 0.1
2015-Mar-28 13:29N 22°08' E 113°46'0 0.0
2015-Mar-28 12:29N 22°08' E 113°46'0 0.1
2015-Mar-28 11:23N 22°08' E 113°46'0 0.1
2015-Mar-28 10:29N 22°08' E 113°46'0 0.0
2015-Mar-28 09:29N 22°08' E 113°46'0 0.0
2015-Mar-28 08:29N 22°08' E 113°46'0 0.0
2015-Mar-28 07:23N 22°08' E 113°46'0 0.0
2015-Mar-28 06:23N 22°08' E 113°46'0 0.0
2015-Mar-28 05:23N 22°08' E 113°46'0 0.0
2015-Mar-28 03:29N 22°08' E 113°46'0 0.1
2015-Mar-28 02:29N 22°08' E 113°46'0 0.0
2015-Mar-28 01:29N 22°08' E 113°46'0 0.0
2015-Mar-28 00:29N 22°08' E 113°46'0 0.1
2015-Mar-27 23:29N 22°08' E 113°46'0 0.0
2015-Mar-27 22:17N 22°08' E 113°46'0 0.1
2015-Mar-27 21:23N 22°08' E 113°46'0 0.0
2015-Mar-27 20:29N 22°08' E 113°46'0 0.0
2015-Mar-27 19:29N 22°08' E 113°46'0 0.1
2015-Mar-27 18:23N 22°08' E 113°46'0 0.1
2015-Mar-27 17:29N 22°08' E 113°46'0 0.0
2015-Mar-27 16:28N 22°08' E 113°46'0 0.0
2015-Mar-27 15:28N 22°08' E 113°46'0 0.0
2015-Mar-27 14:22N 22°08' E 113°46'0 0.1
2015-Mar-27 13:28N 22°08' E 113°46'0 0.0
2015-Mar-27 12:22N 22°08' E 113°46'0 0.0
2015-Mar-27 11:28N 22°08' E 113°46'0 0.1
2015-Mar-27 10:28N 22°08' E 113°46'0 0.0
2015-Mar-27 09:22N 22°08' E 113°46'0 0.0
2015-Mar-27 08:28N 22°08' E 113°46'0 0.1
2015-Mar-27 07:28N 22°08' E 113°46'0 0.0
2015-Mar-27 06:28N 22°08' E 113°46'0 0.2
2015-Mar-27 05:28N 22°08' E 113°46'0 0.0
2015-Mar-27 04:28N 22°08' E 113°46'0 0.1
2015-Mar-27 03:22N 22°08' E 113°46'0 0.0
2015-Mar-27 02:28N 22°08' E 113°46'0 0.0
2015-Mar-27 01:28N 22°08' E 113°46'0 0.1
2015-Mar-27 00:28N 22°08' E 113°46'0 0.0
2015-Mar-26 23:16N 22°08' E 113°46'0 0.1
2015-Mar-26 22:28N 22°08' E 113°46'0 0.1
2015-Mar-26 21:28N 22°08' E 113°46'0 0.1
2015-Mar-26 20:22N 22°08' E 113°46'  
2015-Mar-22 03:15N 22°05' E 113°50'6 8.6
2015-Mar-22 02:33N 22°10' E 113°47'9 8.8
2015-Mar-22 01:33N 22°19' E 113°48'8 7.7
2015-Mar-22 00:30N 22°27' E 113°45'19 9.6
2015-Mar-21 22:30N 22°45' E 113°39'1010.4
2015-Mar-21 21:33N 22°54' E 113°34'10 9.7
2015-Mar-21 20:34N 23°03' E 113°30'1 0.5
2015-Mar-21 19:30N 23°04' E 113°30'0 0.0
2015-Mar-21 18:30N 23°04' E 113°30'0 0.0
2015-Mar-21 17:30N 23°04' E 113°30'0 0.0
2015-Mar-21 16:24N 23°04' E 113°30'0 0.0
2015-Mar-21 15:24N 23°04' E 113°30'0 0.0
2015-Mar-21 14:30N 23°04' E 113°30'0 0.0
2015-Mar-21 12:23N 23°04' E 113°30'0 0.0
2015-Mar-21 11:17N 23°04' E 113°30'0 0.0
2015-Mar-21 10:23N 23°04' E 113°30'0 0.0
2015-Mar-21 09:17N 23°04' E 113°30'0 0.0
2015-Mar-21 08:29N 23°04' E 113°30'0 0.0
2015-Mar-21 07:23N 23°04' E 113°30'0 0.0
2015-Mar-21 06:17N 23°04' E 113°30'0 0.0
2015-Mar-21 05:29N 23°04' E 113°30'0 0.0
2015-Mar-21 04:23N 23°04' E 113°30'0 0.0
2015-Mar-21 03:29N 23°04' E 113°30'0 0.0
2015-Mar-21 02:29N 23°04' E 113°30'0 0.0
2015-Mar-21 01:29N 23°04' E 113°30'0 0.0
2015-Mar-21 00:29N 23°04' E 113°30'0 0.0
2015-Mar-20 23:23N 23°04' E 113°30'0 0.0
2015-Mar-20 22:29N 23°04' E 113°30'0 0.0
2015-Mar-20 21:29N 23°04' E 113°30'0 0.0
2015-Mar-20 20:29N 23°04' E 113°30'0 0.0
2015-Mar-20 19:29N 23°04' E 113°30'0 0.0
2015-Mar-20 18:29N 23°04' E 113°30'0 0.0
2015-Mar-20 17:23N 23°04' E 113°30'0 0.0
2015-Mar-20 16:17N 23°04' E 113°30'0 0.0
2015-Mar-20 15:30N 23°04' E 113°30'3 2.8
2015-Mar-20 14:33N 23°01' E 113°31'9 9.4
2015-Mar-20 13:33N 22°52' E 113°34'10 9.7
2015-Mar-20 12:32N 22°44' E 113°40'2210.4
2015-Mar-20 10:25N 22°23' E 113°47'8 9.3
2015-Mar-20 09:33N 22°15' E 113°48'  

Dump ship's entire track history